Time;durP1;ratioP1;P1;durP2;ratioP2;P2;SDS_P1;SDS_P2;PMS_P1;PMS_P2;Temp;Humidity;BMP_temperature;BMP_pressure;BME280_temperature;BME280_humidity;BME280_pressure;Samples;Min_cycle;Max_cycle;Signal;HPM_P1;HPM_P2
2023/12/17 00:01:21;;;;;;;;;;;;;;;13.12;67.68;102277.19;7358572;19;19923;-65
2023/12/17 00:03:47;;;;;;;;;;;;;;;13.09;67.36;102277.22;7340410;19;19919;-66
2023/12/17 00:06:12;;;;;;;;;;;;;;;13.07;67.22;102273.72;7366219;19;19918;-65
2023/12/17 00:08:37;;;;;;;;;;;;;;;13.06;67.61;102256.25;7361088;19;20769;-65
2023/12/17 00:11:03;;;;;;;;;;;;;;;13.03;67.46;102256.31;7358619;19;19915;-65
2023/12/17 00:13:28;;;;;;;;;;;;;;;13.02;67.17;102249.28;7360095;19;19923;-65
2023/12/17 00:15:53;;;;;;;;;;;;;;;13.00;67.08;102245.84;7359973;19;19954;-66
2023/12/17 00:18:18;;;;;;;;;;;;;;;13.00;67.81;102256.31;7369062;19;19979;-66
2023/12/17 00:20:44;;;;;;;;;;;;;;;13.00;67.37;102230.09;7362205;19;20763;-65
2023/12/17 00:23:09;;;;;;;;;;;;;;;13.00;67.38;102245.84;7365296;19;20405;-65
2023/12/17 00:25:34;;;;;;;;;;;;;;;13.01;67.39;102237.06;7366629;19;19911;-66
2023/12/17 00:28:00;;;;;;;;;;;;;;;13.00;67.61;102240.59;7347180;19;19926;-66
2023/12/17 00:30:25;;;;;;;;;;;;;;;13.01;67.51;102236.22;7372959;19;20038;-66
2023/12/17 00:32:50;;;;;;;;;;;;;;;13.01;67.63;102229.22;7366701;19;20663;-66
2023/12/17 00:35:15;;;;;;;;;;;;;;;13.02;67.83;102236.19;7364759;19;20347;-65
2023/12/17 00:37:41;;;;;;;;;;;;;;;13.03;67.61;102219.59;7362233;19;19919;-65
2023/12/17 00:40:06;;;;;;;;;;;;;;;13.04;67.50;102216.09;7357762;19;20484;-66
2023/12/17 00:42:32;;;;;;;;;;;;;;;13.04;67.66;102212.59;7368354;19;19914;-65
2023/12/17 00:44:57;;;;;;;;;;;;;;;13.05;67.50;102215.19;7366058;19;20603;-66
2023/12/17 00:47:22;;;;;;;;;;;;;;;13.05;67.75;102212.56;7367669;19;19938;-65
2023/12/17 00:49:48;;;;;;;;;;;;;;;13.05;67.36;102202.06;7363921;19;19940;-66
2023/12/17 00:52:13;;;;;;;;;;;;;;;13.06;67.16;102202.94;7367928;19;19926;-65
2023/12/17 00:54:38;;;;;;;;;;;;;;;13.04;67.41;102208.22;7364059;19;19935;-65
2023/12/17 00:57:04;;;;;;;;;;;;;;;13.06;67.53;102195.94;7367469;19;19951;-65
2023/12/17 00:59:29;;;;;;;;;;;;;;;13.07;67.42;102197.69;7366215;19;19918;-65
2023/12/17 01:01:54;;;;;;;;;;;;;;;13.06;66.96;102198.56;7367926;19;19923;-66
2023/12/17 01:04:19;;;;;;;;;;;;;;;13.08;67.06;102196.81;7358776;19;19921;-65
2023/12/17 01:06:45;;;;;;;;;;;;;;;13.06;67.07;102180.22;7362846;19;20479;-66
2023/12/17 01:09:10;;;;;;;;;;;;;;;13.09;66.89;102174.09;7368010;19;19911;-66
2023/12/17 01:11:36;;;;;;;;;;;;;;;13.09;66.86;102198.56;7368178;19;19918;-65
2023/12/17 01:14:01;;;;;;;;;;;;;;;13.11;67.12;102154.81;7363882;19;19918;-66
2023/12/17 01:16:26;;;;;;;;;;;;;;;13.05;67.28;102169.75;7368544;19;19940;-65
2023/12/17 01:18:52;;;;;;;;;;;;;;;13.12;66.76;102171.41;7363464;19;19923;-66
2023/12/17 01:21:17;;;;;;;;;;;;;;;13.11;67.18;102180.16;7367686;19;19923;-65
2023/12/17 01:23:42;;;;;;;;;;;;;;;13.11;67.38;102169.69;7335263;19;19923;-66
2023/12/17 01:26:08;;;;;;;;;;;;;;;13.12;67.33;102171.41;7368672;19;19945;-65
2023/12/17 01:28:34;;;;;;;;;;;;;;;13.14;66.97;102160.03;7363973;19;20372;-65
2023/12/17 01:30:59;;;;;;;;;;;;;;;13.14;67.46;102169.66;7367222;19;19922;-65
2023/12/17 01:33:24;;;;;;;;;;;;;;;13.13;67.47;102168.78;7363178;19;19927;-66
2023/12/17 01:35:50;;;;;;;;;;;;;;;13.15;67.31;102161.78;7364774;19;19923;-66
2023/12/17 01:38:15;;;;;;;;;;;;;;;13.05;66.76;102135.66;7369288;19;19978;-65
2023/12/17 01:40:40;;;;;;;;;;;;;;;13.17;66.80;102146.88;7363660;19;19989;-66
2023/12/17 01:43:09;;;;;;;;;;;;;;;13.18;66.97;102163.50;7361692;19;19926;-65
2023/12/17 01:45:34;;;;;;;;;;;;;;;13.18;66.92;102135.53;7363091;19;19921;-66
2023/12/17 01:47:59;;;;;;;;;;;;;;;13.18;67.26;102130.28;7363904;19;19915;-65
2023/12/17 01:50:25;;;;;;;;;;;;;;;13.18;67.18;102125.03;7360773;19;19978;-65
2023/12/17 01:52:51;;;;;;;;;;;;;;;13.18;66.97;102113.66;7368544;19;20015;-66
2023/12/17 01:55:16;;;;;;;;;;;;;;;13.18;67.41;102111.91;7356605;19;20024;-65
2023/12/17 01:57:42;;;;;;;;;;;;;;;13.17;67.19;102102.28;7365615;19;19951;-65
2023/12/17 02:00:08;;;;;;;;;;;;;;;13.20;67.54;102096.16;7367784;19;19926;-65
2023/12/17 02:02:33;;;;;;;;;;;;;;;13.19;67.34;102095.28;7367605;19;20304;-65
2023/12/17 02:05:01;;;;;;;;;;;;;;;13.20;67.08;102094.38;7366161;19;22466;-66
2023/12/17 02:07:26;;;;;;;;;;;;;;;13.21;67.37;102069.03;7365652;19;19923;-65
2023/12/17 02:09:51;;;;;;;;;;;;;;;13.20;67.16;102081.28;7371019;19;20555;-65
2023/12/17 02:12:35;;;;;;;;;;;;;;;13.19;67.43;102055.94;7373943;19;19935;-65
2023/12/17 02:15:00;;;;;;;;;;;;;;;13.18;67.54;102040.22;7365263;19;20289;-65
2023/12/17 02:17:27;;;;;;;;;;;;;;;13.16;67.59;102034.97;7363904;19;19951;-65
2023/12/17 02:19:52;;;;;;;;;;;;;;;13.15;67.56;102072.59;7365215;19;20589;-65
2023/12/17 02:22:17;;;;;;;;;;;;;;;13.14;67.58;102055.13;7364086;19;19939;-65
2023/12/17 02:24:43;;;;;;;;;;;;;;;13.12;67.78;102030.66;7360916;19;19919;-65
2023/12/17 02:27:08;;;;;;;;;;;;;;;13.12;67.58;102041.13;7364749;19;20050;-65
2023/12/17 02:29:33;;;;;;;;;;;;;;;13.09;67.65;102004.47;7361239;19;20263;-65
2023/12/17 02:31:58;;;;;;;;;;;;;;;13.09;67.55;102024.59;7363629;19;20631;-65
2023/12/17 02:34:24;;;;;;;;;;;;;;;13.07;67.93;102042.94;7363735;19;19930;-65
2023/12/17 02:36:49;;;;;;;;;;;;;;;13.08;67.91;102018.47;7364267;19;19915;-65
2023/12/17 02:39:14;;;;;;;;;;;;;;;13.06;67.62;102004.50;7357966;19;20008;-65
2023/12/17 02:41:39;;;;;;;;;;;;;;;13.05;67.65;102004.53;7365485;19;20263;-66
2023/12/17 02:44:05;;;;;;;;;;;;;;;13.06;68.03;102025.47;7365139;19;19921;-66
2023/12/17 02:46:30;;;;;;;;;;;;;;;13.05;67.95;102013.25;7360886;19;19926;-66
2023/12/17 02:48:55;;;;;;;;;;;;;;;13.07;67.57;102010.63;7362258;19;19915;-65
2023/12/17 02:51:20;;;;;;;;;;;;;;;13.05;67.66;102000.16;7359768;19;19921;-65
2023/12/17 02:53:46;;;;;;;;;;;;;;;13.04;67.57;102011.53;7363958;19;19930;-65
2023/12/17 02:56:11;;;;;;;;;;;;;;;13.06;67.63;101998.38;7358844;19;19929;-66
2023/12/17 02:58:38;;;;;;;;;;;;;;;13.04;67.52;102008.91;7357585;19;20383;-66
2023/12/17 03:01:03;;;;;;;;;;;;;;;13.04;67.80;101990.56;7363639;19;20367;-66
2023/12/17 03:03:28;;;;;;;;;;;;;;;13.04;67.65;101985.31;7360917;19;19957;-65
2023/12/17 03:05:53;;;;;;;;;;;;;;;13.04;67.77;102000.19;7363675;19;19930;-65
2023/12/17 03:08:19;;;;;;;;;;;;;;;13.03;67.62;101987.94;7363113;19;19949;-65
2023/12/17 03:10:44;;;;;;;;;;;;;;;13.03;67.75;102003.66;7363229;19;19934;-66
2023/12/17 03:13:09;;;;;;;;;;;;;;;13.02;67.77;101984.44;7360715;19;19923;-66
2023/12/17 03:15:34;;;;;;;;;;;;;;;13.03;67.74;102003.66;7360801;19;21163;-65
2023/12/17 03:18:00;;;;;;;;;;;;;;;13.03;67.72;101991.44;7364843;19;19927;-65
2023/12/17 03:20:26;;;;;;;;;;;;;;;13.04;67.99;101989.69;7366773;19;19982;-66
2023/12/17 03:22:51;;;;;;;;;;;;;;;13.02;67.73;101992.31;7360861;19;19922;-65
2023/12/17 03:25:16;;;;;;;;;;;;;;;13.02;67.84;101997.56;7361786;19;20667;-65
2023/12/17 03:27:41;;;;;;;;;;;;;;;13.03;67.61;101999.31;7361937;19;19915;-66
2023/12/17 03:30:07;;;;;;;;;;;;;;;13.02;67.60;101984.44;7368273;19;19919;-65
2023/12/17 03:32:32;;;;;;;;;;;;;;;13.01;67.84;101985.34;7355569;19;19918;-66
2023/12/17 03:34:57;;;;;;;;;;;;;;;13.02;67.41;101976.56;7362830;19;19922;-65
2023/12/17 03:37:22;;;;;;;;;;;;;;;13.02;67.31;101960.84;7362954;19;19944;-65
2023/12/17 03:39:50;;;;;;;;;;;;;;;13.01;67.67;101968.75;7358944;19;19986;-65
2023/12/17 03:42:15;;;;;;;;;;;;;;;13.00;67.37;101978.34;7362580;19;19919;-66
2023/12/17 03:44:40;;;;;;;;;;;;;;;13.00;67.17;101970.50;7357973;19;19919;-65
2023/12/17 03:47:05;;;;;;;;;;;;;;;12.99;67.34;101981.88;7367825;19;19922;-66
2023/12/17 03:49:31;;;;;;;;;;;;;;;12.98;67.59;101975.75;7362573;19;19916;-66
2023/12/17 03:51:56;;;;;;;;;;;;;;;12.98;67.83;101990.63;7360509;19;20334;-65
2023/12/17 03:54:21;;;;;;;;;;;;;;;12.98;67.55;101985.38;7362141;19;19917;-66
2023/12/17 03:56:47;;;;;;;;;;;;;;;12.99;67.68;101979.25;7360721;19;19931;-65
2023/12/17 03:59:12;;;;;;;;;;;;;;;13.00;67.48;101962.63;7372244;19;20372;-66
2023/12/17 04:01:47;;;;;;;;;;;;;;;12.98;67.73;101964.41;7358755;19;19917;-65
2023/12/17 04:04:13;;;;;;;;;;;;;;;12.97;67.84;101983.63;7369644;19;20336;-65
2023/12/17 04:06:40;;;;;;;;;;;;;;;12.97;67.52;101952.16;7366442;19;19907;-65
2023/12/17 04:09:05;;;;;;;;;;;;;;;12.96;67.92;101959.16;7366574;19;19935;-65
2023/12/17 04:11:31;;;;;;;;;;;;;;;12.96;67.49;101945.19;7366557;19;19923;-66
2023/12/17 04:13:56;;;;;;;;;;;;;;;12.95;67.60;101954.81;7366654;19;19923;-66
2023/12/17 04:16:21;;;;;;;;;;;;;;;12.94;68.03;101947.84;7368157;19;20309;-65
2023/12/17 04:18:46;;;;;;;;;;;;;;;12.94;67.86;101955.72;7337948;19;19939;-65
2023/12/17 04:21:12;;;;;;;;;;;;;;;12.95;67.82;101948.72;7369740;19;19947;-66
2023/12/17 04:23:37;;;;;;;;;;;;;;;12.94;67.85;101937.34;7367513;19;19986;-65
2023/12/17 04:26:02;;;;;;;;;;;;;;;12.94;67.87;101955.72;7370813;19;19943;-66
2023/12/17 04:28:27;;;;;;;;;;;;;;;12.94;67.84;101957.47;7360323;19;19923;-66
2023/12/17 04:30:53;;;;;;;;;;;;;;;12.94;67.75;101926.88;7366648;19;19911;-65
2023/12/17 04:33:18;;;;;;;;;;;;;;;12.94;67.61;101921.63;7369731;19;19927;-65
2023/12/17 04:35:43;;;;;;;;;;;;;;;12.96;67.74;101918.97;7368583;19;19915;-65
2023/12/17 04:38:08;;;;;;;;;;;;;;;12.94;67.36;101895.41;7368976;19;20316;-65
2023/12/17 04:40:34;;;;;;;;;;;;;;;12.95;67.53;101917.25;7368990;19;20052;-66
2023/12/17 04:42:59;;;;;;;;;;;;;;;12.94;67.50;101895.41;7368094;19;19925;-66
2023/12/17 04:45:24;;;;;;;;;;;;;;;12.94;67.42;101876.19;7363862;19;19918;-65
2023/12/17 04:47:50;;;;;;;;;;;;;;;12.94;67.18;101911.13;7366622;19;19919;-65
2023/12/17 04:50:15;;;;;;;;;;;;;;;12.97;67.13;101928.56;7362265;19;19922;-65
2023/12/17 04:52:40;;;;;;;;;;;;;;;12.95;66.88;101910.25;7365365;19;19946;-65
2023/12/17 04:55:06;;;;;;;;;;;;;;;12.96;66.87;101909.34;7373663;19;20002;-66
2023/12/17 04:57:31;;;;;;;;;;;;;;;12.97;67.15;101916.31;7366219;19;19931;-65
2023/12/17 04:59:57;;;;;;;;;;;;;;;12.98;66.92;101917.22;7366252;19;20048;-65
2023/12/17 05:02:22;;;;;;;;;;;;;;;12.97;66.77;101911.06;7375668;19;19927;-65
2023/12/17 05:04:47;;;;;;;;;;;;;;;12.98;66.60;101906.72;7365166;19;19915;-65
2023/12/17 05:07:12;;;;;;;;;;;;;;;12.98;66.93;101912.84;7366107;19;19922;-65
2023/12/17 05:09:38;;;;;;;;;;;;;;;12.99;66.43;101913.69;7365587;19;19919;-66
2023/12/17 05:12:03;;;;;;;;;;;;;;;12.94;67.02;101876.19;7373520;19;19919;-65
2023/12/17 05:14:28;;;;;;;;;;;;;;;12.99;66.85;101890.97;7368170;19;19915;-65
2023/12/17 05:16:53;;;;;;;;;;;;;;;13.00;66.50;101889.22;7363348;19;20940;-65
2023/12/17 05:19:19;;;;;;;;;;;;;;;12.99;66.54;101908.47;7365224;19;19942;-66
2023/12/17 05:21:44;;;;;;;;;;;;;;;13.00;66.46;101907.56;7368559;19;19990;-65
2023/12/17 05:24:09;;;;;;;;;;;;;;;12.99;66.66;101909.31;7365412;19;19956;-66
2023/12/17 05:26:34;;;;;;;;;;;;;;;13.00;66.89;101907.56;7366326;19;19915;-65
2023/12/17 05:29:00;;;;;;;;;;;;;;;13.00;67.03;101920.66;7367239;19;19930;-66
2023/12/17 05:31:25;;;;;;;;;;;;;;;13.01;67.05;101921.53;7364460;19;20323;-65
2023/12/17 05:33:51;;;;;;;;;;;;;;;13.00;66.99;101915.44;7370394;19;20386;-66
2023/12/17 05:36:16;;;;;;;;;;;;;;;13.01;66.83;101922.41;7376256;19;19923;-65
2023/12/17 05:38:42;;;;;;;;;;;;;;;13.02;66.84;101916.25;7368222;19;19919;-66
2023/12/17 05:41:07;;;;;;;;;;;;;;;13.02;66.99;101908.41;7366705;19;19932;-66
2023/12/17 05:43:32;;;;;;;;;;;;;;;13.01;67.14;101917.16;7362711;19;20473;-66
2023/12/17 05:45:58;;;;;;;;;;;;;;;13.01;67.15;101911.91;7360028;19;19948;-66
2023/12/17 05:48:23;;;;;;;;;;;;;;;13.01;67.21;101911.91;7362578;19;20367;-65
2023/12/17 05:50:49;;;;;;;;;;;;;;;13.01;66.79;101925.03;7356695;19;19967;-65
2023/12/17 05:53:14;;;;;;;;;;;;;;;13.00;66.92;101910.19;7368767;19;20389;-65
2023/12/17 05:55:39;;;;;;;;;;;;;;;12.99;67.26;101918.94;7367161;19;19929;-66
2023/12/17 05:58:04;;;;;;;;;;;;;;;12.99;67.25;101932.91;7365405;19;19919;-65
2023/12/17 06:00:30;;;;;;;;;;;;;;;13.00;67.03;101928.53;7367202;19;19923;-66
2023/12/17 06:02:55;;;;;;;;;;;;;;;13.01;67.28;101917.16;7369261;19;19926;-65
2023/12/17 06:05:20;;;;;;;;;;;;;;;13.00;67.44;101923.28;7372950;19;19922;-65
2023/12/17 06:07:45;;;;;;;;;;;;;;;13.00;67.19;101923.28;7367443;19;19990;-65
2023/12/17 06:10:11;;;;;;;;;;;;;;;12.99;66.91;101908.47;7365368;19;19925;-66
2023/12/17 06:12:36;;;;;;;;;;;;;;;12.99;67.20;101908.47;7366362;19;19947;-65
2023/12/17 06:15:01;;;;;;;;;;;;;;;12.99;67.32;101914.56;7364037;19;19922;-65
2023/12/17 06:17:26;;;;;;;;;;;;;;;12.99;67.30;101926.81;7363885;19;19915;-65
2023/12/17 06:19:52;;;;;;;;;;;;;;;13.00;67.09;101910.19;7365720;19;20329;-65
2023/12/17 06:22:17;;;;;;;;;;;;;;;13.00;67.24;101904.94;7364288;19;19931;-67
2023/12/17 06:24:42;;;;;;;;;;;;;;;12.99;67.24;101903.22;7368483;19;19919;-66
2023/12/17 06:27:15;;;;;;;;;;;;;;;12.99;67.05;101908.47;7364065;19;20710;-66
2023/12/17 06:29:40;;;;;;;;;;;;;;;13.01;67.04;101922.41;7363393;19;20723;-66
2023/12/17 06:32:07;;;;;;;;;;;;;;;13.01;67.50;101922.41;7362714;19;19930;-65
2023/12/17 06:34:32;;;;;;;;;;;;;;;13.00;67.24;101931.16;7362398;19;19922;-65
2023/12/17 06:36:58;;;;;;;;;;;;;;;13.01;67.07;101919.78;7365701;19;19911;-65
2023/12/17 06:39:23;;;;;;;;;;;;;;;13.01;67.51;101914.53;7360206;19;19946;-66
2023/12/17 06:41:49;;;;;;;;;;;;;;;13.01;67.27;101906.66;7332557;19;19931;-65
2023/12/17 06:44:14;;;;;;;;;;;;;;;13.01;67.19;101909.28;7365518;19;19922;-65
2023/12/17 06:46:40;;;;;;;;;;;;;;;13.01;67.51;101906.66;7363166;19;20711;-65
2023/12/17 06:49:05;;;;;;;;;;;;;;;13.02;67.26;101908.41;7358068;19;20380;-66
2023/12/17 06:51:30;;;;;;;;;;;;;;;13.02;67.35;101900.53;7365848;19;19943;-66
2023/12/17 06:53:55;;;;;;;;;;;;;;;13.02;67.26;101891.81;7370464;19;19922;-65
2023/12/17 06:56:21;;;;;;;;;;;;;;;13.03;67.35;101893.53;7364864;19;19939;-66
2023/12/17 06:58:46;;;;;;;;;;;;;;;13.02;67.63;101892.66;7358376;19;19942;-65
2023/12/17 07:01:11;;;;;;;;;;;;;;;12.93;67.60;101871.84;7363716;19;19907;-65
2023/12/17 07:03:36;;;;;;;;;;;;;;;13.03;67.49;101894.44;7363569;19;19926;-66
2023/12/17 07:06:02;;;;;;;;;;;;;;;13.03;67.64;101889.19;7364876;19;19915;-66
2023/12/17 07:08:27;;;;;;;;;;;;;;;13.03;67.68;101883.94;7363668;19;19933;-65
2023/12/17 07:10:53;;;;;;;;;;;;;;;13.04;67.35;101905.78;7351249;19;19918;-66
2023/12/17 07:13:18;;;;;;;;;;;;;;;13.03;67.51;101878.69;7361926;19;19925;-66
2023/12/17 07:15:44;;;;;;;;;;;;;;;13.03;67.57;101867.31;7362502;19;19923;-66
2023/12/17 07:18:09;;;;;;;;;;;;;;;13.04;67.42;101869.06;7361149;19;19988;-66
2023/12/17 07:20:35;;;;;;;;;;;;;;;13.03;67.10;101878.69;7363136;19;19930;-65
2023/12/17 07:23:00;;;;;;;;;;;;;;;13.01;67.59;101869.97;7364669;19;19918;-65
2023/12/17 07:25:26;;;;;;;;;;;;;;;13.03;67.51;101878.69;7355824;19;20291;-65
2023/12/17 07:27:52;;;;;;;;;;;;;;;13.03;67.42;101868.19;7360215;19;19919;-66
2023/12/17 07:30:17;;;;;;;;;;;;;;;13.04;66.96;101858.56;7360946;19;20391;-66
2023/12/17 07:32:42;;;;;;;;;;;;;;;13.02;67.21;101863.81;7362486;19;19919;-65
2023/12/17 07:35:08;;;;;;;;;;;;;;;13.01;67.29;101859.47;7361863;19;20233;-66
2023/12/17 07:37:34;;;;;;;;;;;;;;;13.02;67.03;101870.81;7334835;19;19937;-66
2023/12/17 07:39:59;;;;;;;;;;;;;;;13.02;67.35;101845.47;7362152;19;20339;-66
2023/12/17 07:42:24;;;;;;;;;;;;;;;13.02;67.21;101869.06;7362660;19;20266;-65
2023/12/17 07:44:49;;;;;;;;;;;;;;;13.02;67.21;101850.72;7356689;19;19948;-66
2023/12/17 07:47:15;;;;;;;;;;;;;;;13.02;67.11;101842.84;7366228;19;19943;-65
2023/12/17 07:49:40;;;;;;;;;;;;;;;13.05;67.18;101840.19;7360037;19;19919;-65
2023/12/17 07:52:05;;;;;;;;;;;;;;;13.05;66.99;101845.44;7362219;19;20625;-65
2023/12/17 07:54:32;;;;;;;;;;;;;;;13.05;67.11;101845.44;7349404;19;19918;-65
2023/12/17 07:56:57;;;;;;;;;;;;;;;13.03;67.42;101852.47;7365254;19;19919;-65
2023/12/17 07:59:22;;;;;;;;;;;;;;;13.05;67.00;101845.44;7361717;19;19918;-65
2023/12/17 08:01:48;;;;;;;;;;;;;;;13.05;67.55;101850.69;7356129;19;19986;-65
2023/12/17 08:04:13;;;;;;;;;;;;;;;13.05;67.38;101845.44;7362172;19;19923;-66
2023/12/17 08:06:39;;;;;;;;;;;;;;;13.05;67.26;101845.44;7362192;19;20320;-66
2023/12/17 08:09:04;;;;;;;;;;;;;;;13.05;67.12;101837.56;7359402;19;19955;-65
2023/12/17 08:11:29;;;;;;;;;;;;;;;13.07;67.34;101848.88;7355362;19;19923;-66
2023/12/17 08:13:54;;;;;;;;;;;;;;;13.09;67.41;101862.88;7361451;19;19939;-65
2023/12/17 08:16:20;;;;;;;;;;;;;;;13.08;67.40;101855.88;7359631;19;19930;-65
2023/12/17 08:18:45;;;;;;;;;;;;;;;13.10;66.99;101854.09;7359639;19;20674;-66
2023/12/17 08:21:10;;;;;;;;;;;;;;;13.09;67.23;101847.13;7356292;19;19925;-65
2023/12/17 08:23:35;;;;;;;;;;;;;;;13.09;67.39;101852.38;7358771;19;19919;-66
2023/12/17 08:26:01;;;;;;;;;;;;;;;13.10;67.17;101867.22;7358145;19;19919;-66
2023/12/17 08:28:26;;;;;;;;;;;;;;;13.10;67.13;101868.97;7355610;19;19922;-66
2023/12/17 08:30:51;;;;;;;;;;;;;;;13.09;67.51;101870.72;7362447;19;19994;-65
2023/12/17 08:33:17;;;;;;;;;;;;;;;13.12;67.21;101869.81;7357044;19;19919;-65
2023/12/17 08:35:43;;;;;;;;;;;;;;;13.12;67.46;101867.19;7365086;19;20301;-66
2023/12/17 08:38:08;;;;;;;;;;;;;;;13.11;67.20;101861.06;7356322;19;20287;-66
2023/12/17 08:40:34;;;;;;;;;;;;;;;13.13;67.43;101877.66;7345892;19;19923;-65
2023/12/17 08:43:03;;;;;;;;;;;;;;;13.12;67.18;101852.31;7358391;19;20358;-66
2023/12/17 08:45:28;;;;;;;;;;;;;;;13.13;67.00;101859.31;7359796;19;20859;-65
2023/12/17 08:47:53;;;;;;;;;;;;;;;13.13;67.07;101856.69;7363548;19;19923;-65
2023/12/17 08:50:19;;;;;;;;;;;;;;;13.12;67.22;101873.28;7361648;19;20156;-66
2023/12/17 08:52:44;;;;;;;;;;;;;;;13.14;67.10;101866.28;7361019;19;20020;-66
2023/12/17 08:55:10;;;;;;;;;;;;;;;13.13;67.42;101877.66;7367594;19;19945;-65
2023/12/17 08:57:36;;;;;;;;;;;;;;;13.15;67.31;101857.53;7360800;19;19954;-65
2023/12/17 09:00:03;;;;;;;;;;;;;;;13.15;67.22;101873.25;7365217;19;19930;-65
2023/12/17 09:02:28;;;;;;;;;;;;;;;13.17;67.07;101866.22;7366045;19;19918;-66
2023/12/17 09:04:54;;;;;;;;;;;;;;;13.18;67.38;101882.84;7369491;19;20016;-65
2023/12/17 09:07:19;;;;;;;;;;;;;;;13.18;67.05;101867.97;7365165;19;19957;-65
2023/12/17 09:09:44;;;;;;;;;;;;;;;13.19;67.51;101868.84;7369151;19;20210;-66
2023/12/17 09:12:09;;;;;;;;;;;;;;;13.22;67.53;101869.69;7365432;19;19927;-66
2023/12/17 09:14:36;;;;;;;;;;;;;;;13.22;67.28;101872.28;7368959;19;19918;-65
2023/12/17 09:17:01;;;;;;;;;;;;;;;13.24;67.04;101878.41;7362956;19;19919;-65
2023/12/17 09:19:26;;;;;;;;;;;;;;;13.28;67.25;101883.59;7366069;19;19929;-66
2023/12/17 09:21:52;;;;;;;;;;;;;;;13.28;66.92;101878.34;7362591;19;19922;-65
2023/12/17 09:24:17;;;;;;;;;;;;;;;13.31;67.40;101883.56;7364329;19;19919;-65
2023/12/17 09:26:42;;;;;;;;;;;;;;;13.32;67.22;101898.41;7364707;19;19929;-65
2023/12/17 09:29:07;;;;;;;;;;;;;;;13.33;66.94;101903.66;7360076;19;19919;-66
2023/12/17 09:31:33;;;;;;;;;;;;;;;13.35;66.94;101873.00;7361522;19;20531;-65
2023/12/17 09:33:58;;;;;;;;;;;;;;;13.39;67.27;101886.94;7365100;19;20577;-66
2023/12/17 09:36:25;;;;;;;;;;;;;;;13.41;66.93;101900.88;7365409;19;19915;-66
2023/12/17 09:38:50;;;;;;;;;;;;;;;13.45;66.85;101886.84;7362601;19;19923;-66
2023/12/17 09:41:15;;;;;;;;;;;;;;;13.47;67.11;101900.78;7364581;19;19922;-65
2023/12/17 09:43:41;;;;;;;;;;;;;;;13.51;66.92;101878.88;7364651;19;19918;-65
2023/12/17 09:46:07;;;;;;;;;;;;;;;13.53;66.77;101884.94;7362967;19;19926;-66
2023/12/17 09:48:32;;;;;;;;;;;;;;;13.56;67.04;101915.53;7367600;19;19955;-66
2023/12/17 09:50:58;;;;;;;;;;;;;;;13.59;66.98;101863.88;7361936;19;19934;-66
2023/12/17 09:53:23;;;;;;;;;;;;;;;13.62;66.79;101858.56;7359610;19;19923;-66
2023/12/17 09:55:49;;;;;;;;;;;;;;;13.63;67.04;101870.78;7365059;19;19940;-65
2023/12/17 09:58:14;;;;;;;;;;;;;;;13.65;66.79;101869.00;7362850;19;20398;-65
2023/12/17 10:00:39;;;;;;;;;;;;;;;13.71;66.80;101845.28;7364819;19;19927;-65
2023/12/17 10:03:05;;;;;;;;;;;;;;;13.79;66.95;101865.25;7365830;19;19918;-65
2023/12/17 10:05:31;;;;;;;;;;;;;;;13.85;66.81;101852.06;7362099;19;19922;-65
2023/12/17 10:07:56;;;;;;;;;;;;;;;13.92;66.80;101849.28;7360948;19;20463;-65
2023/12/17 10:10:22;;;;;;;;;;;;;;;14.03;67.00;101843.81;7361190;19;20639;-66
2023/12/17 10:12:47;;;;;;;;;;;;;;;14.16;67.15;101855.84;7362922;19;20303;-65
2023/12/17 10:15:12;;;;;;;;;;;;;;;14.34;66.38;101848.47;7361893;19;19974;-66
2023/12/17 10:17:38;;;;;;;;;;;;;;;14.51;65.86;101851.69;7359000;19;19923;-66
2023/12/17 10:20:04;;;;;;;;;;;;;;;14.64;65.86;101839.13;7362764;19;19922;-66
2023/12/17 10:22:29;;;;;;;;;;;;;;;14.77;65.26;101844.09;7354883;19;20305;-66
2023/12/17 10:24:54;;;;;;;;;;;;;;;14.91;65.35;101850.84;7322401;19;19919;-65
2023/12/17 10:27:20;;;;;;;;;;;;;;;15.07;64.73;101852.22;7349594;19;20022;-65
2023/12/17 10:29:52;;;;;;;;;;;;;;;15.16;64.54;101870.44;7347438;19;19922;-66
2023/12/17 10:32:20;;;;;;;;;;;;;;;15.26;63.87;101843.00;7354722;19;19914;-65
2023/12/17 10:34:46;;;;;;;;;;;;;;;15.29;62.91;101840.28;7359442;19;19919;-66
2023/12/17 10:37:11;;;;;;;;;;;;;;;15.30;62.74;101843.75;7358179;19;20406;-65
2023/12/17 10:39:37;;;;;;;;;;;;;;;15.28;62.68;101843.81;7350989;19;20691;-66
2023/12/17 10:42:03;;;;;;;;;;;;;;;15.27;62.66;101849.97;7355137;19;19938;-65
2023/12/17 10:44:28;;;;;;;;;;;;;;;15.29;63.17;101839.41;7357560;19;19982;-66
2023/12/17 10:46:54;;;;;;;;;;;;;;;15.31;62.81;101835.00;7351088;19;19918;-66
2023/12/17 10:49:19;;;;;;;;;;;;;;;15.34;62.86;101841.94;7351384;19;19918;-65
2023/12/17 10:51:45;;;;;;;;;;;;;;;15.32;62.50;101821.78;7346456;19;19926;-66
2023/12/17 10:54:13;;;;;;;;;;;;;;;15.27;62.56;101834.19;7352660;19;20316;-66
2023/12/17 10:56:47;;;;;;;;;;;;;;;15.24;62.47;101818.47;7351674;19;19919;-66
2023/12/17 10:59:19;;;;;;;;;;;;;;;15.21;62.74;101839.59;7354346;19;19911;-66
2023/12/17 11:01:46;;;;;;;;;;;;;;;15.20;62.01;101837.84;7353912;19;19937;-65
2023/12/17 11:04:11;;;;;;;;;;;;;;;15.18;61.95;101844.94;7358324;19;19955;-66
2023/12/17 11:06:37;;;;;;;;;;;;;;;15.16;62.34;101846.75;7350329;19;19994;-65
2023/12/17 11:09:03;;;;;;;;;;;;;;;15.13;62.42;101838.91;7359150;19;19932;-65
2023/12/17 11:11:31;;;;;;;;;;;;;;;15.14;62.31;101821.34;7353850;19;19946;-65
2023/12/17 11:13:56;;;;;;;;;;;;;;;15.12;62.76;101831.94;7359415;19;20759;-65
2023/12/17 11:16:24;;;;;;;;;;;;;;;15.13;62.63;101841.53;7358177;19;19919;-66
2023/12/17 11:18:50;;;;;;;;;;;;;;;15.15;62.46;101850.25;7358682;19;20748;-66
2023/12/17 11:21:17;;;;;;;;;;;;;;;15.16;62.15;101851.13;7363074;19;20272;-65
2023/12/17 11:23:42;;;;;;;;;;;;;;;15.14;62.33;101859.03;7364434;19;19932;-65
2023/12/17 11:26:07;;;;;;;;;;;;;;;15.16;62.54;101841.47;7363496;19;19919;-65
2023/12/17 11:28:33;;;;;;;;;;;;;;;15.24;63.08;101841.28;7366582;19;19907;-66
2023/12/17 11:30:58;;;;;;;;;;;;;;;15.37;63.62;101826.06;7353569;19;20572;-65
2023/12/17 11:33:25;;;;;;;;;;;;;;;15.61;62.84;101854.41;7359345;19;19940;-65
2023/12/17 11:35:51;;;;;;;;;;;;;;;15.76;62.76;101843.53;7355333;19;19960;-65
2023/12/17 11:38:16;;;;;;;;;;;;;;;15.95;63.33;101819.31;7355977;19;19953;-66
2023/12/17 11:40:41;;;;;;;;;;;;;;;16.13;63.35;101829.38;7357024;19;19953;-66
2023/12/17 11:43:07;;;;;;;;;;;;;;;16.27;62.61;101824.56;7357816;19;19931;-66
2023/12/17 11:45:36;;;;;;;;;;;;;;;16.38;61.43;101828.69;7353076;19;20259;-65
2023/12/17 11:48:05;;;;;;;;;;;;;;;16.38;61.13;101826.91;7362261;19;19936;-65
2023/12/17 11:50:38;;;;;;;;;;;;;;;16.36;59.70;101833.97;7352138;19;21301;-66
2023/12/17 11:53:04;;;;;;;;;;;;;;;16.27;59.30;101840.41;7355013;19;19919;-65
2023/12/17 11:55:29;;;;;;;;;;;;;;;16.19;59.78;101826.56;7358804;19;19921;-65
2023/12/17 11:58:00;;;;;;;;;;;;;;;16.14;60.35;101825.81;7355410;19;19915;-65
2023/12/17 12:00:25;;;;;;;;;;;;;;;16.10;60.76;101816.25;7355688;19;20947;-66
2023/12/17 12:02:51;;;;;;;;;;;;;;;16.10;59.84;101816.25;7354840;19;19919;-65
2023/12/17 12:05:18;;;;;;;;;;;;;;;16.08;60.52;101810.19;7351877;19;20342;-66
2023/12/17 12:07:43;;;;;;;;;;;;;;;16.04;60.28;101825.22;7353858;19;20384;-65
2023/12/17 12:10:09;;;;;;;;;;;;;;;15.99;60.37;101815.69;7350546;19;19919;-65
2023/12/17 12:12:34;;;;;;;;;;;;;;;15.96;60.65;101813.13;7357860;19;19998;-66
2023/12/17 12:14:59;;;;;;;;;;;;;;;15.93;60.37;101797.44;7355413;19;19919;-66
2023/12/17 12:17:38;;;;;;;;;;;;;;;15.89;60.68;101804.56;7359783;19;19923;-65
2023/12/17 12:20:04;;;;;;;;;;;;;;;15.86;60.50;101806.38;7362737;19;20387;-66
2023/12/17 12:22:30;;;;;;;;;;;;;;;15.82;60.79;101811.75;7356072;19;19919;-65
2023/12/17 12:24:55;;;;;;;;;;;;;;;15.81;60.81;101788.97;7361734;19;19927;-66
2023/12/17 12:27:21;;;;;;;;;;;;;;;15.80;60.99;101797.75;7353459;19;19931;-65